createdAt,value
2018-07-14T00:00:19.491Z,20.81
2018-07-14T00:02:49.244Z,20.83
2018-07-14T00:05:19.188Z,20.43
2018-07-14T00:07:48.928Z,20.48
2018-07-14T00:10:18.797Z,20.47
2018-07-14T00:12:48.599Z,20.63
2018-07-14T00:15:18.526Z,20.60
2018-07-14T00:17:48.377Z,20.57
2018-07-14T00:20:18.144Z,20.33
2018-07-14T00:22:47.956Z,20.34
2018-07-14T00:25:21.725Z,20.39
2018-07-14T00:27:51.530Z,20.32
2018-07-14T00:30:21.462Z,20.24
2018-07-14T00:32:51.559Z,20.42
2018-07-14T00:35:22.478Z,20.11
2018-07-14T00:37:52.233Z,20.29
2018-07-14T00:40:21.969Z,20.39
2018-07-14T00:42:52.087Z,20.42
2018-07-14T00:45:22.464Z,20.39
2018-07-14T00:47:52.186Z,20.22
2018-07-14T00:50:21.970Z,20.31
2018-07-14T00:52:52.070Z,20.40
2018-07-14T00:55:21.976Z,20.44
2018-07-14T00:57:51.638Z,20.41
2018-07-14T01:00:21.498Z,20.41
2018-07-14T01:02:51.166Z,20.40
2018-07-14T01:05:20.854Z,20.31
2018-07-14T01:07:50.759Z,19.87
2018-07-14T01:10:20.665Z,19.80
2018-07-14T01:12:50.433Z,20.02
2018-07-14T01:15:20.212Z,20.09
2018-07-14T01:17:50.176Z,20.16
2018-07-14T01:20:19.940Z,20.21
2018-07-14T01:22:49.637Z,20.20
2018-07-14T01:25:19.310Z,20.38
2018-07-14T01:27:49.013Z,20.39
2018-07-14T01:30:18.751Z,20.23
2018-07-14T01:32:48.497Z,20.22
2018-07-14T01:35:18.230Z,20.22
2018-07-14T01:37:47.969Z,20.01
2018-07-14T01:40:17.965Z,20.11
2018-07-14T01:42:47.748Z,20.07
2018-07-14T01:45:17.422Z,19.69
2018-07-14T01:47:47.197Z,19.61
2018-07-14T01:50:16.820Z,19.84
2018-07-14T01:52:46.575Z,19.99
2018-07-14T01:55:16.245Z,19.97
2018-07-14T01:57:46.032Z,19.57
2018-07-14T02:00:15.857Z,19.58
2018-07-14T02:02:45.491Z,19.65
2018-07-14T02:05:15.362Z,19.76
2018-07-14T02:07:45.215Z,19.86
2018-07-14T02:10:14.957Z,19.52
2018-07-14T02:12:44.735Z,19.76
2018-07-14T02:15:14.716Z,19.89
2018-07-14T02:17:44.609Z,19.76
2018-07-14T02:20:14.446Z,19.84
2018-07-14T02:22:44.250Z,19.72
2018-07-14T02:25:14.102Z,19.66
2018-07-14T02:27:43.854Z,19.66
2018-07-14T02:30:13.701Z,19.80
2018-07-14T02:32:43.594Z,19.77
2018-07-14T02:35:13.269Z,19.83
2018-07-14T02:37:42.941Z,19.95
2018-07-14T02:40:12.822Z,19.49
2018-07-14T02:42:42.590Z,19.36
2018-07-14T02:45:12.276Z,19.70
2018-07-14T02:47:42.082Z,19.75
2018-07-14T02:50:11.898Z,19.56
2018-07-14T02:52:41.453Z,19.88
2018-07-14T02:55:11.324Z,19.95
2018-07-14T02:57:41.051Z,20.01
2018-07-14T03:00:10.860Z,19.81
2018-07-14T03:02:40.551Z,19.93
2018-07-14T03:05:10.328Z,19.97
2018-07-14T03:07:40.085Z,19.90
2018-07-14T03:10:09.935Z,19.86
2018-07-14T03:12:39.665Z,19.73
2018-07-14T03:15:09.561Z,19.66
2018-07-14T03:17:39.531Z,19.78
2018-07-14T03:20:09.889Z,19.37
2018-07-14T03:22:39.809Z,19.73
2018-07-14T03:25:09.929Z,19.59
2018-07-14T03:27:39.647Z,19.77
2018-07-14T03:30:09.392Z,19.92
2018-07-14T03:32:39.997Z,19.50
2018-07-14T03:35:10.672Z,19.48
2018-07-14T03:37:40.437Z,19.74
2018-07-14T03:40:10.306Z,19.26
2018-07-14T03:42:40.103Z,19.56
2018-07-14T03:45:09.946Z,19.09
2018-07-14T03:47:39.729Z,18.71
2018-07-14T03:50:09.504Z,18.96
2018-07-14T03:52:39.237Z,19.38
2018-07-14T03:55:09.431Z,19.53
2018-07-14T03:57:39.288Z,19.73
2018-07-14T04:00:09.142Z,19.82
2018-07-14T04:02:38.706Z,19.69
2018-07-14T04:05:08.479Z,19.88
2018-07-14T04:07:38.449Z,19.33
2018-07-14T04:10:08.666Z,18.72
2018-07-14T04:12:38.416Z,18.63
2018-07-14T04:15:08.361Z,19.12
2018-07-14T04:17:38.127Z,19.59
2018-07-14T04:20:07.898Z,19.81
2018-07-14T04:22:37.797Z,19.91
2018-07-14T04:25:08.166Z,20.12
2018-07-14T04:27:38.001Z,19.42
2018-07-14T04:30:07.830Z,19.15
2018-07-14T04:32:37.578Z,19.45
2018-07-14T04:35:07.670Z,20.16
2018-07-14T04:37:37.434Z,20.06
2018-07-14T04:40:07.272Z,20.13
2018-07-14T04:42:37.055Z,20.68
2018-07-14T04:45:06.891Z,20.96
2018-07-14T04:47:36.615Z,21.12
2018-07-14T04:50:06.439Z,21.16
2018-07-14T04:52:36.304Z,20.47
2018-07-14T04:55:06.413Z,20.85
2018-07-14T04:57:36.114Z,21.31
2018-07-14T05:00:06.157Z,21.16
2018-07-14T05:02:35.913Z,21.00
2018-07-14T05:05:05.821Z,21.12
2018-07-14T05:07:35.494Z,21.44
2018-07-14T05:10:05.669Z,21.40
2018-07-14T05:12:35.480Z,21.64
2018-07-14T05:15:05.538Z,22.14
2018-07-14T05:17:35.531Z,22.32
2018-07-14T05:20:05.538Z,22.64
2018-07-14T05:22:35.366Z,22.03
2018-07-14T05:25:05.772Z,21.15
2018-07-14T05:27:35.586Z,21.22
2018-07-14T05:30:05.528Z,21.82
2018-07-14T05:32:35.278Z,21.79
2018-07-14T05:35:05.662Z,22.33
2018-07-14T05:37:35.493Z,20.59
2018-07-14T05:40:05.527Z,20.52
2018-07-14T05:42:35.385Z,20.63
2018-07-14T05:45:05.330Z,20.40
2018-07-14T05:47:35.122Z,20.64
2018-07-14T05:50:04.803Z,20.21
2018-07-14T05:52:34.640Z,19.95
2018-07-14T05:55:04.755Z,19.76
2018-07-14T05:57:34.362Z,19.91
2018-07-14T06:00:04.240Z,20.08
2018-07-14T06:02:33.992Z,20.55
2018-07-14T06:05:03.889Z,20.96
2018-07-14T06:07:33.794Z,21.55
2018-07-14T06:10:03.486Z,21.85
2018-07-14T06:12:33.340Z,21.89
2018-07-14T06:15:03.158Z,21.79
2018-07-14T06:17:32.966Z,22.28
2018-07-14T06:20:02.725Z,23.40
2018-07-14T06:22:32.482Z,23.33
2018-07-14T06:25:02.379Z,23.59
2018-07-14T06:27:32.430Z,23.41
2018-07-14T06:30:02.330Z,23.93
2018-07-14T06:32:32.189Z,22.76
2018-07-14T06:35:02.055Z,22.93
2018-07-14T06:37:31.896Z,23.50
2018-07-14T06:40:01.621Z,23.87
2018-07-14T06:42:31.337Z,24.18
2018-07-14T06:45:01.154Z,24.53
2018-07-14T06:47:31.234Z,23.83
2018-07-14T06:50:00.889Z,24.98
2018-07-14T06:52:30.763Z,25.45
2018-07-14T06:55:00.604Z,25.25
2018-07-14T06:57:30.404Z,26.19
2018-07-14T07:00:00.243Z,25.10
2018-07-14T07:02:30.072Z,26.02
2018-07-14T07:04:59.941Z,25.05
2018-07-14T07:07:29.760Z,25.94
2018-07-14T07:09:59.600Z,25.96
2018-07-14T07:12:29.313Z,26.43
2018-07-14T07:14:59.088Z,27.38
2018-07-14T07:17:28.866Z,27.20
2018-07-14T07:19:58.650Z,27.93
2018-07-14T07:22:28.480Z,27.89
2018-07-14T07:24:58.315Z,27.35
2018-07-14T07:27:28.034Z,26.74
2018-07-14T07:29:57.795Z,27.36
2018-07-14T07:32:27.650Z,27.80
2018-07-14T07:34:57.431Z,28.00
2018-07-14T07:37:27.193Z,27.09
2018-07-14T07:39:56.856Z,27.25
2018-07-14T07:42:26.708Z,27.83
2018-07-14T07:44:56.516Z,27.70
2018-07-14T07:47:26.714Z,28.08
2018-07-14T07:49:56.469Z,28.71
2018-07-14T07:52:26.310Z,28.94
2018-07-14T07:54:56.219Z,28.86
2018-07-14T07:57:25.853Z,29.37
2018-07-14T07:59:55.627Z,29.95
2018-07-14T08:02:25.323Z,30.05
2018-07-14T08:04:55.144Z,29.92
2018-07-14T08:07:24.934Z,29.92
2018-07-14T08:09:54.716Z,30.48
2018-07-14T08:12:24.505Z,29.20
2018-07-14T08:14:54.437Z,29.70
2018-07-14T08:17:24.239Z,30.13
2018-07-14T08:19:53.975Z,30.30
2018-07-14T08:22:23.782Z,31.05
2018-07-14T08:24:53.571Z,31.86
2018-07-14T08:27:23.323Z,31.45
2018-07-14T08:29:53.259Z,31.21
2018-07-14T08:32:23.217Z,30.99
2018-07-14T08:34:53.073Z,30.05
2018-07-14T08:37:22.778Z,31.89
2018-07-14T08:39:52.633Z,32.40
2018-07-14T08:42:22.571Z,32.39
2018-07-14T08:44:53.124Z,32.48
2018-07-14T08:47:22.883Z,32.48
2018-07-14T08:49:52.614Z,32.41
2018-07-14T08:52:22.278Z,32.41
2018-07-14T08:54:52.265Z,32.42
2018-07-14T08:57:21.999Z,32.83
2018-07-14T08:59:51.843Z,32.09
2018-07-14T09:02:22.607Z,32.79
2018-07-14T09:04:52.566Z,33.31
2018-07-14T09:07:22.315Z,34.21
2018-07-14T09:09:52.108Z,33.24
2018-07-14T09:12:21.819Z,33.03
2018-07-14T09:14:51.660Z,33.29
2018-07-14T09:17:21.417Z,33.60
2018-07-14T09:19:51.246Z,33.80
2018-07-14T09:22:20.944Z,34.09
2018-07-14T09:24:51.538Z,33.06
2018-07-14T09:27:21.255Z,34.28
2018-07-14T09:29:50.979Z,33.83
2018-07-14T09:32:20.801Z,33.22
2018-07-14T09:34:51.055Z,33.98
2018-07-14T09:37:20.949Z,33.87
2018-07-14T09:39:50.822Z,33.91
2018-07-14T09:42:20.668Z,34.64
2018-07-14T09:44:50.478Z,34.21
2018-07-14T09:47:20.244Z,34.75
2018-07-14T09:49:49.945Z,34.54
2018-07-14T09:52:19.613Z,34.74
2018-07-14T09:54:49.591Z,34.93
2018-07-14T09:57:19.332Z,35.65
2018-07-14T09:59:49.288Z,35.41
2018-07-14T10:02:19.122Z,35.75
2018-07-14T10:04:48.831Z,35.80
2018-07-14T10:07:18.677Z,35.76
2018-07-14T10:09:48.398Z,34.49
2018-07-14T10:12:18.248Z,34.95
2018-07-14T10:14:48.078Z,33.93
2018-07-14T10:17:17.863Z,34.94
2018-07-14T10:19:47.528Z,35.05
2018-07-14T10:22:17.233Z,34.33
2018-07-14T10:24:47.202Z,34.77
2018-07-14T10:27:17.810Z,34.86
2018-07-14T10:29:47.613Z,35.36
2018-07-14T10:32:18.110Z,33.91
2018-07-14T10:34:49.517Z,34.09
2018-07-14T10:37:20.115Z,33.11
2018-07-14T10:39:50.601Z,33.97
2018-07-14T10:42:21.045Z,34.91
2018-07-14T10:44:51.819Z,34.78
2018-07-14T10:47:22.147Z,34.59
2018-07-14T10:49:52.719Z,34.95
2018-07-14T10:52:23.119Z,35.62
2018-07-14T10:54:54.786Z,36.94
2018-07-14T10:57:24.466Z,37.47
2018-07-14T10:59:54.257Z,37.84
2018-07-14T11:02:24.084Z,36.69
2018-07-14T11:04:54.562Z,37.12
2018-07-14T11:07:24.409Z,36.68
2018-07-14T11:09:54.275Z,36.29
2018-07-14T11:12:24.026Z,35.30
2018-07-14T11:14:54.399Z,34.41
2018-07-14T11:17:24.252Z,33.86
2018-07-14T11:19:53.953Z,33.45
2018-07-14T11:22:23.778Z,32.43
2018-07-14T11:24:53.964Z,32.47
2018-07-14T11:27:23.842Z,33.08
2018-07-14T11:29:54.086Z,33.64
2018-07-14T11:32:24.824Z,34.55
2018-07-14T11:34:56.170Z,34.87
2018-07-14T11:37:26.534Z,35.58
2018-07-14T11:39:56.380Z,35.82
2018-07-14T11:42:26.215Z,35.99
2018-07-14T11:44:57.147Z,35.59
2018-07-14T11:47:27.039Z,34.71
2018-07-14T11:49:56.831Z,34.91
2018-07-14T11:52:26.671Z,33.85
2018-07-14T11:54:57.139Z,33.13
2018-07-14T11:57:26.890Z,32.40
2018-07-14T11:59:56.756Z,31.41
2018-07-14T12:02:26.605Z,31.27
2018-07-14T12:04:57.365Z,31.31
2018-07-14T12:07:27.184Z,31.42
2018-07-14T12:09:56.943Z,30.91
2018-07-14T12:12:26.754Z,30.90
2018-07-14T12:14:56.687Z,30.81
2018-07-14T12:17:26.500Z,31.15
2018-07-14T12:19:56.443Z,31.28
2018-07-14T12:22:26.346Z,31.17
2018-07-14T12:24:56.159Z,31.20
2018-07-14T12:27:26.170Z,30.93
2018-07-14T12:29:56.884Z,30.68
2018-07-14T12:32:26.490Z,30.70
2018-07-14T12:34:57.142Z,30.70
2018-07-14T12:37:27.051Z,30.89
2018-07-14T12:39:57.077Z,30.97
2018-07-14T12:42:26.920Z,31.20
2018-07-14T12:44:57.465Z,31.58
2018-07-14T12:47:27.310Z,30.94
2018-07-14T12:49:57.173Z,31.36
2018-07-14T12:52:26.950Z,31.59
2018-07-14T12:54:56.818Z,31.47
2018-07-14T12:57:26.688Z,32.14
2018-07-14T12:59:56.667Z,32.79
2018-07-14T13:02:26.599Z,33.01
2018-07-14T13:04:56.494Z,32.63
2018-07-14T13:07:26.391Z,32.74
2018-07-14T13:09:56.363Z,32.16
2018-07-14T13:12:26.246Z,32.15
2018-07-14T13:14:56.283Z,31.96
2018-07-14T13:17:26.149Z,31.51
2018-07-14T13:19:56.016Z,31.89
2018-07-14T13:22:25.990Z,32.18
2018-07-14T13:24:55.816Z,32.26
2018-07-14T13:27:25.787Z,32.04
2018-07-14T13:29:55.512Z,31.70
2018-07-14T13:32:25.362Z,32.28
2018-07-14T13:34:55.240Z,32.34
2018-07-14T13:37:25.128Z,32.46
2018-07-14T13:39:55.052Z,32.50
2018-07-14T13:42:25.166Z,32.62
2018-07-14T13:44:55.714Z,31.99
2018-07-14T13:47:25.710Z,32.34
2018-07-14T13:49:56.071Z,32.68
2018-07-14T13:52:25.875Z,32.04
2018-07-14T13:54:56.654Z,31.91
2018-07-14T13:57:27.783Z,32.10
2018-07-14T13:59:58.596Z,31.84
2018-07-14T14:02:28.448Z,32.31
2018-07-14T14:04:58.807Z,32.48
2018-07-14T14:07:28.768Z,32.58
2018-07-14T14:09:58.646Z,32.54
2018-07-14T14:12:28.431Z,33.20
2018-07-14T14:14:58.751Z,32.48
2018-07-14T14:17:28.671Z,31.93
2018-07-14T14:19:58.580Z,31.95
2018-07-14T14:22:28.448Z,31.48
2018-07-14T14:24:58.364Z,31.32
2018-07-14T14:27:28.139Z,31.60
2018-07-14T14:29:58.041Z,31.71
2018-07-14T14:32:28.711Z,31.89
2018-07-14T14:34:59.517Z,31.69
2018-07-14T14:37:29.492Z,32.26
2018-07-14T14:39:59.467Z,31.66
2018-07-14T14:42:29.583Z,31.01
2018-07-14T14:45:00.813Z,30.59
2018-07-14T14:47:30.629Z,30.72
2018-07-14T14:50:00.419Z,30.81
2018-07-14T14:52:30.443Z,30.69
2018-07-14T14:55:00.355Z,30.27
2018-07-14T14:57:31.049Z,30.73
2018-07-14T15:00:00.893Z,30.87
2018-07-14T15:02:30.927Z,30.73
2018-07-14T15:05:01.992Z,30.88
2018-07-14T15:07:31.746Z,30.90
2018-07-14T15:10:01.722Z,30.15
2018-07-14T15:12:31.644Z,30.00
2018-07-14T15:15:02.511Z,30.00
2018-07-14T15:17:32.458Z,30.10
2018-07-14T15:20:02.332Z,29.97
2018-07-14T15:22:32.183Z,30.03
2018-07-14T15:25:02.719Z,30.00
2018-07-14T15:27:32.562Z,29.58
2018-07-14T15:30:02.448Z,29.39
2018-07-14T15:32:32.351Z,29.67
2018-07-14T15:35:02.153Z,30.00
2018-07-14T15:37:32.022Z,30.18
2018-07-14T15:40:01.891Z,30.18
2018-07-14T15:42:31.922Z,30.25
2018-07-14T15:45:01.752Z,30.39
2018-07-14T15:47:31.689Z,30.43
2018-07-14T15:50:01.450Z,30.19
2018-07-14T15:52:31.429Z,29.90
2018-07-14T15:55:01.192Z,29.79
2018-07-14T15:57:31.188Z,29.72
2018-07-14T16:00:00.975Z,30.00
2018-07-14T16:02:30.725Z,30.08
2018-07-14T16:05:00.459Z,30.12
2018-07-14T16:07:30.015Z,30.10
2018-07-14T16:09:59.749Z,30.04
2018-07-14T16:12:29.541Z,30.07
2018-07-14T16:14:59.430Z,29.87
2018-07-14T16:17:29.189Z,29.18
2018-07-14T16:19:58.914Z,29.14
2018-07-14T16:22:28.753Z,29.03
2018-07-14T16:26:01.278Z,28.35
2018-07-14T16:28:31.008Z,27.81
2018-07-14T16:31:00.858Z,27.88
2018-07-14T16:33:30.680Z,27.72
2018-07-14T16:36:00.568Z,27.90
2018-07-14T16:38:30.324Z,27.62
2018-07-14T16:41:00.283Z,27.76
2018-07-14T16:43:30.357Z,27.67
2018-07-14T16:46:00.153Z,27.24
2018-07-14T16:48:30.043Z,27.25
2018-07-14T16:50:59.890Z,27.12
2018-07-14T16:53:29.695Z,27.14
2018-07-14T16:55:59.539Z,27.46
2018-07-14T16:58:29.286Z,27.12
2018-07-14T17:00:59.102Z,26.87
2018-07-14T17:03:28.824Z,26.85
2018-07-14T17:05:58.606Z,26.54
2018-07-14T17:08:28.334Z,26.05
2018-07-14T17:10:58.153Z,26.12
2018-07-14T17:13:28.194Z,26.65
2018-07-14T17:15:58.051Z,26.10
2018-07-14T17:18:27.864Z,25.59
2018-07-14T17:20:57.805Z,25.95
2018-07-14T17:23:27.668Z,25.39
2018-07-14T17:25:57.518Z,25.12
2018-07-14T17:28:27.350Z,25.12
2018-07-14T17:30:57.259Z,25.43
2018-07-14T17:33:27.052Z,25.31
2018-07-14T17:35:56.781Z,25.21
2018-07-14T17:38:26.430Z,24.95
2018-07-14T17:40:56.330Z,24.93
2018-07-14T17:43:26.310Z,25.19
2018-07-14T17:45:56.291Z,25.42
2018-07-14T17:48:26.107Z,25.63
2018-07-14T17:50:55.966Z,25.73
2018-07-14T17:53:27.266Z,25.46
2018-07-14T17:55:57.216Z,25.36
2018-07-14T17:58:27.198Z,25.71
2018-07-14T18:00:57.016Z,25.71
2018-07-14T18:03:28.919Z,25.92
2018-07-14T18:05:58.656Z,26.12
2018-07-14T18:08:28.481Z,26.19
2018-07-14T18:10:58.456Z,26.07
2018-07-14T18:13:29.427Z,26.16
2018-07-14T18:15:59.231Z,26.21
2018-07-14T18:18:29.120Z,26.11
2018-07-14T18:20:58.936Z,25.75
2018-07-14T18:23:30.019Z,25.95
2018-07-14T18:25:59.873Z,25.91
2018-07-14T18:28:29.859Z,25.88
2018-07-14T18:31:00.226Z,25.78
2018-07-14T18:33:30.964Z,25.77
2018-07-14T18:36:00.971Z,25.63
2018-07-14T18:38:30.768Z,25.65
2018-07-14T18:41:01.032Z,25.70
2018-07-14T18:43:31.347Z,25.77
2018-07-14T18:46:01.525Z,25.78
2018-07-14T18:48:31.399Z,25.57
2018-07-14T18:51:01.452Z,24.44
2018-07-14T18:53:31.247Z,23.78
2018-07-14T18:56:00.973Z,23.65
2018-07-14T18:58:30.680Z,23.74
2018-07-14T19:01:00.592Z,23.79
2018-07-14T19:03:30.370Z,23.66
2018-07-14T19:06:00.218Z,23.68
2018-07-14T19:08:30.091Z,23.63
2018-07-14T19:10:59.875Z,23.44
2018-07-14T19:13:29.858Z,23.69
2018-07-14T19:15:59.754Z,23.59
2018-07-14T19:18:29.676Z,24.01
2018-07-14T19:21:00.332Z,24.28
2018-07-14T19:23:31.571Z,24.03
2018-07-14T19:26:01.818Z,24.30
2018-07-14T19:28:31.667Z,24.41
2018-07-14T19:31:01.457Z,23.56
2018-07-14T19:33:31.321Z,23.00
2018-07-14T19:36:01.210Z,22.78
2018-07-14T19:38:31.069Z,22.97
2018-07-14T19:41:00.821Z,22.80
2018-07-14T19:43:30.555Z,22.85
2018-07-14T19:46:00.358Z,22.72
2018-07-14T19:48:30.672Z,22.44
2018-07-14T19:51:00.615Z,22.42
2018-07-14T19:53:30.607Z,22.54
2018-07-14T19:56:00.538Z,22.52
2018-07-14T19:58:30.366Z,22.46
2018-07-14T20:01:00.104Z,22.42
2018-07-14T20:03:29.942Z,22.16
2018-07-14T20:05:59.879Z,22.17
2018-07-14T20:08:29.536Z,22.02
2018-07-14T20:10:59.336Z,21.99
2018-07-14T20:13:29.096Z,22.04
2018-07-14T20:15:58.770Z,21.90
2018-07-14T20:18:28.586Z,21.84
2018-07-14T20:20:58.348Z,21.89
2018-07-14T20:23:28.158Z,21.84
2018-07-14T20:25:57.910Z,21.81
2018-07-14T20:28:27.646Z,21.82
2018-07-14T20:30:57.354Z,21.98
2018-07-14T20:33:27.139Z,21.92
2018-07-14T20:35:56.918Z,21.95
2018-07-14T20:38:26.786Z,22.08
2018-07-14T20:40:56.567Z,22.42
2018-07-14T20:43:26.565Z,22.89
2018-07-14T20:45:56.338Z,23.08
2018-07-14T20:48:26.202Z,22.99
2018-07-14T20:50:56.292Z,23.18
2018-07-14T20:53:26.116Z,22.64
2018-07-14T20:55:56.990Z,22.79
2018-07-14T20:58:26.798Z,22.61
2018-07-14T21:00:56.625Z,22.87
2018-07-14T21:03:27.486Z,22.78
2018-07-14T21:05:57.384Z,22.92
2018-07-14T21:08:27.025Z,22.43
2018-07-14T21:10:56.866Z,22.33
2018-07-14T21:13:26.961Z,22.61
2018-07-14T21:15:56.813Z,22.41
2018-07-14T21:18:26.637Z,22.64
2018-07-14T21:20:56.613Z,22.07
2018-07-14T21:23:26.568Z,22.37
2018-07-14T21:25:56.439Z,22.77
2018-07-14T21:28:26.274Z,22.81
2018-07-14T21:30:56.058Z,22.61
2018-07-14T21:33:25.823Z,22.80
2018-07-14T21:35:55.529Z,22.69
2018-07-14T21:38:25.284Z,22.84
2018-07-14T21:40:55.018Z,22.89
2018-07-14T21:43:24.791Z,22.82
2018-07-14T21:45:54.854Z,22.00
2018-07-14T21:48:24.659Z,21.70
2018-07-14T21:50:54.447Z,21.28
2018-07-14T21:53:24.441Z,21.45
2018-07-14T21:55:54.216Z,21.79
2018-07-14T21:58:24.112Z,22.23
2018-07-14T22:00:59.943Z,22.27
2018-07-14T22:03:30.847Z,21.97
2018-07-14T22:06:00.464Z,22.10
2018-07-14T22:08:30.238Z,22.24
2018-07-14T22:11:00.085Z,21.70
2018-07-14T22:13:30.451Z,21.80
2018-07-14T22:16:00.154Z,21.94
2018-07-14T22:18:29.921Z,21.74
2018-07-14T22:20:59.584Z,21.57
2018-07-14T22:23:29.472Z,21.45
2018-07-14T22:25:59.250Z,21.38
2018-07-14T22:28:29.032Z,21.19
2018-07-14T22:30:58.869Z,20.85
2018-07-14T22:33:28.678Z,20.94
2018-07-14T22:35:58.205Z,21.45
2018-07-14T22:38:27.985Z,21.86
2018-07-14T22:40:57.680Z,22.05
2018-07-14T22:43:27.426Z,22.16
2018-07-14T22:45:57.465Z,22.23
2018-07-14T22:48:27.284Z,22.25
2018-07-14T22:50:57.113Z,22.26
2018-07-14T22:53:27.058Z,22.20
2018-07-14T22:55:56.874Z,21.92
2018-07-14T22:58:26.666Z,21.84
2018-07-14T23:00:56.425Z,22.10
2018-07-14T23:03:26.080Z,22.06
2018-07-14T23:05:56.007Z,21.94
2018-07-14T23:08:25.834Z,22.01
2018-07-14T23:10:55.548Z,22.03
2018-07-14T23:13:25.426Z,22.02
2018-07-14T23:15:55.374Z,22.01
2018-07-14T23:18:25.208Z,21.96
2018-07-14T23:20:55.024Z,21.94
2018-07-14T23:23:24.833Z,21.90
2018-07-14T23:25:54.583Z,21.72
2018-07-14T23:28:24.358Z,21.04
2018-07-14T23:30:54.197Z,21.32
2018-07-14T23:33:23.981Z,21.43
2018-07-14T23:35:53.695Z,21.53
2018-07-14T23:38:23.497Z,21.36
2018-07-14T23:40:53.237Z,21.47
2018-07-14T23:43:22.848Z,21.45
2018-07-14T23:45:52.570Z,21.53
2018-07-14T23:48:22.251Z,21.46
2018-07-14T23:50:52.066Z,21.40
2018-07-14T23:53:21.738Z,21.28
2018-07-14T23:55:51.895Z,20.30
2018-07-14T23:58:21.691Z,20.09
